sensor_id;sensor_type;location;lat;lon;timestamp;P1;durP1;ratioP1;P2;durP2;ratioP2
52248;SDS011;38541;48.130;8.378;2023-03-05T00:01:08;17.77;;;11.93;;
52248;SDS011;38541;48.130;8.378;2023-03-05T00:03:36;23.85;;;13.02;;
52248;SDS011;38541;48.130;8.378;2023-03-05T00:06:04;18.23;;;12.80;;
52248;SDS011;38541;48.130;8.378;2023-03-05T00:08:31;16.08;;;11.38;;
52248;SDS011;38541;48.130;8.378;2023-03-05T00:10:58;18.95;;;11.98;;
52248;SDS011;38541;48.130;8.378;2023-03-05T00:13:29;16.85;;;11.80;;
52248;SDS011;38541;48.130;8.378;2023-03-05T00:15:56;16.80;;;12.52;;
52248;SDS011;38541;48.130;8.378;2023-03-05T00:18:22;18.90;;;12.50;;
52248;SDS011;38541;48.130;8.378;2023-03-05T00:20:49;19.92;;;13.98;;
52248;SDS011;38541;48.130;8.378;2023-03-05T00:23:16;19.60;;;12.35;;
52248;SDS011;38541;48.130;8.378;2023-03-05T00:25:43;18.08;;;11.48;;
52248;SDS011;38541;48.130;8.378;2023-03-05T00:28:11;18.52;;;11.38;;
52248;SDS011;38541;48.130;8.378;2023-03-05T00:30:38;16.27;;;11.15;;
52248;SDS011;38541;48.130;8.378;2023-03-05T00:33:05;14.80;;;10.43;;
52248;SDS011;38541;48.130;8.378;2023-03-05T00:35:37;16.98;;;11.80;;
52248;SDS011;38541;48.130;8.378;2023-03-05T00:38:08;13.75;;;10.30;;
52248;SDS011;38541;48.130;8.378;2023-03-05T00:40:36;16.67;;;11.13;;
52248;SDS011;38541;48.130;8.378;2023-03-05T00:43:04;14.98;;;10.65;;
52248;SDS011;38541;48.130;8.378;2023-03-05T00:45:32;17.25;;;11.35;;
52248;SDS011;38541;48.130;8.378;2023-03-05T00:47:59;18.98;;;12.13;;
52248;SDS011;38541;48.130;8.378;2023-03-05T00:50:25;15.48;;;10.68;;
52248;SDS011;38541;48.130;8.378;2023-03-05T00:52:53;17.50;;;11.07;;
52248;SDS011;38541;48.130;8.378;2023-03-05T00:55:20;15.27;;;10.02;;
52248;SDS011;38541;48.130;8.378;2023-03-05T00:57:47;16.10;;;10.35;;
52248;SDS011;38541;48.130;8.378;2023-03-05T01:00:14;14.68;;;10.95;;
52248;SDS011;38541;48.130;8.378;2023-03-05T01:02:41;15.27;;;10.57;;
52248;SDS011;38541;48.130;8.378;2023-03-05T01:05:11;16.10;;;11.18;;
52248;SDS011;38541;48.130;8.378;2023-03-05T01:07:39;15.20;;;10.48;;
52248;SDS011;38541;48.130;8.378;2023-03-05T01:10:06;13.23;;;9.95;;
52248;SDS011;38541;48.130;8.378;2023-03-05T01:12:33;17.70;;;10.68;;
52248;SDS011;38541;48.130;8.378;2023-03-05T01:15:00;16.85;;;11.82;;
52248;SDS011;38541;48.130;8.378;2023-03-05T01:17:27;15.63;;;10.57;;
52248;SDS011;38541;48.130;8.378;2023-03-05T01:19:54;16.27;;;10.60;;
52248;SDS011;38541;48.130;8.378;2023-03-05T01:22:20;14.38;;;10.25;;
52248;SDS011;38541;48.130;8.378;2023-03-05T01:24:47;15.35;;;9.63;;
52248;SDS011;38541;48.130;8.378;2023-03-05T01:27:13;15.38;;;11.18;;
52248;SDS011;38541;48.130;8.378;2023-03-05T01:29:40;16.33;;;10.65;;
52248;SDS011;38541;48.130;8.378;2023-03-05T01:32:06;16.83;;;10.80;;
52248;SDS011;38541;48.130;8.378;2023-03-05T01:34:34;15.77;;;10.75;;
52248;SDS011;38541;48.130;8.378;2023-03-05T01:37:02;18.77;;;12.30;;
52248;SDS011;38541;48.130;8.378;2023-03-05T01:39:29;21.00;;;13.77;;
52248;SDS011;38541;48.130;8.378;2023-03-05T01:41:55;16.85;;;11.98;;
52248;SDS011;38541;48.130;8.378;2023-03-05T01:44:23;15.43;;;10.45;;
52248;SDS011;38541;48.130;8.378;2023-03-05T01:46:54;16.83;;;9.60;;
52248;SDS011;38541;48.130;8.378;2023-03-05T01:49:24;12.63;;;8.85;;
52248;SDS011;38541;48.130;8.378;2023-03-05T01:51:57;12.23;;;8.73;;
52248;SDS011;38541;48.130;8.378;2023-03-05T01:54:30;12.38;;;8.13;;
52248;SDS011;38541;48.130;8.378;2023-03-05T01:57:02;12.13;;;8.32;;
52248;SDS011;38541;48.130;8.378;2023-03-05T01:59:34;12.70;;;9.27;;
52248;SDS011;38541;48.130;8.378;2023-03-05T02:02:03;13.80;;;8.68;;
52248;SDS011;38541;48.130;8.378;2023-03-05T02:04:35;12.20;;;8.63;;
52248;SDS011;38541;48.130;8.378;2023-03-05T02:07:06;13.23;;;8.57;;
52248;SDS011;38541;48.130;8.378;2023-03-05T02:09:36;11.88;;;8.73;;
52248;SDS011;38541;48.130;8.378;2023-03-05T02:12:04;12.88;;;8.73;;
52248;SDS011;38541;48.130;8.378;2023-03-05T02:14:31;12.35;;;8.00;;
52248;SDS011;38541;48.130;8.378;2023-03-05T02:16:58;11.73;;;8.55;;
52248;SDS011;38541;48.130;8.378;2023-03-05T02:19:25;11.35;;;8.45;;
52248;SDS011;38541;48.130;8.378;2023-03-05T02:21:52;11.38;;;8.48;;
52248;SDS011;38541;48.130;8.378;2023-03-05T02:24:35;14.77;;;8.18;;
52248;SDS011;38541;48.130;8.378;2023-03-05T02:27:02;12.43;;;8.52;;
52248;SDS011;38541;48.130;8.378;2023-03-05T02:29:31;8.93;;;7.18;;
52248;SDS011;38541;48.130;8.378;2023-03-05T02:31:59;9.95;;;7.88;;
52248;SDS011;38541;48.130;8.378;2023-03-05T02:34:26;11.20;;;7.97;;
52248;SDS011;38541;48.130;8.378;2023-03-05T02:36:53;10.77;;;7.28;;
52248;SDS011;38541;48.130;8.378;2023-03-05T02:39:22;12.45;;;8.05;;
52248;SDS011;38541;48.130;8.378;2023-03-05T02:41:48;10.85;;;7.20;;
52248;SDS011;38541;48.130;8.378;2023-03-05T02:44:15;9.55;;;7.25;;
52248;SDS011;38541;48.130;8.378;2023-03-05T02:46:41;10.27;;;7.22;;
52248;SDS011;38541;48.130;8.378;2023-03-05T02:49:08;13.90;;;7.65;;
52248;SDS011;38541;48.130;8.378;2023-03-05T02:51:34;9.57;;;6.78;;
52248;SDS011;38541;48.130;8.378;2023-03-05T02:54:01;10.27;;;8.25;;
52248;SDS011;38541;48.130;8.378;2023-03-05T02:56:28;10.15;;;7.22;;
52248;SDS011;38541;48.130;8.378;2023-03-05T02:58:54;12.75;;;7.85;;
52248;SDS011;38541;48.130;8.378;2023-03-05T03:01:21;11.07;;;7.05;;
52248;SDS011;38541;48.130;8.378;2023-03-05T03:03:47;10.30;;;8.27;;
52248;SDS011;38541;48.130;8.378;2023-03-05T03:06:14;11.02;;;8.05;;
52248;SDS011;38541;48.130;8.378;2023-03-05T03:08:40;10.98;;;6.82;;
52248;SDS011;38541;48.130;8.378;2023-03-05T03:11:07;9.98;;;7.32;;
52248;SDS011;38541;48.130;8.378;2023-03-05T03:13:37;10.48;;;7.20;;
52248;SDS011;38541;48.130;8.378;2023-03-05T03:16:05;11.95;;;7.22;;
52248;SDS011;38541;48.130;8.378;2023-03-05T03:18:37;9.48;;;7.00;;
52248;SDS011;38541;48.130;8.378;2023-03-05T03:21:04;8.95;;;6.68;;
52248;SDS011;38541;48.130;8.378;2023-03-05T03:23:32;9.82;;;6.97;;
52248;SDS011;38541;48.130;8.378;2023-03-05T03:25:59;9.77;;;7.00;;
52248;SDS011;38541;48.130;8.378;2023-03-05T03:28:25;11.02;;;8.07;;
52248;SDS011;38541;48.130;8.378;2023-03-05T03:30:52;10.20;;;6.65;;
52248;SDS011;38541;48.130;8.378;2023-03-05T03:33:18;10.38;;;6.80;;
52248;SDS011;38541;48.130;8.378;2023-03-05T03:35:45;8.45;;;6.53;;
52248;SDS011;38541;48.130;8.378;2023-03-05T03:38:11;9.23;;;6.18;;
52248;SDS011;38541;48.130;8.378;2023-03-05T03:40:39;9.77;;;7.35;;
52248;SDS011;38541;48.130;8.378;2023-03-05T03:43:06;9.27;;;7.20;;
52248;SDS011;38541;48.130;8.378;2023-03-05T03:45:33;7.57;;;6.13;;
52248;SDS011;38541;48.130;8.378;2023-03-05T03:47:59;11.63;;;7.47;;
52248;SDS011;38541;48.130;8.378;2023-03-05T03:50:26;9.82;;;6.63;;
52248;SDS011;38541;48.130;8.378;2023-03-05T03:52:52;9.57;;;6.32;;
52248;SDS011;38541;48.130;8.378;2023-03-05T03:55:19;14.30;;;7.22;;
52248;SDS011;38541;48.130;8.378;2023-03-05T03:57:46;9.68;;;7.30;;
52248;SDS011;38541;48.130;8.378;2023-03-05T04:00:12;8.68;;;6.15;;
52248;SDS011;38541;48.130;8.378;2023-03-05T04:02:40;7.65;;;5.88;;
52248;SDS011;38541;48.130;8.378;2023-03-05T04:05:06;10.02;;;6.72;;
52248;SDS011;38541;48.130;8.378;2023-03-05T04:07:33;8.88;;;6.75;;
52248;SDS011;38541;48.130;8.378;2023-03-05T04:10:01;11.95;;;6.93;;
52248;SDS011;38541;48.130;8.378;2023-03-05T04:12:29;9.27;;;6.57;;
52248;SDS011;38541;48.130;8.378;2023-03-05T04:14:56;10.70;;;6.45;;
52248;SDS011;38541;48.130;8.378;2023-03-05T04:17:22;8.38;;;6.47;;
52248;SDS011;38541;48.130;8.378;2023-03-05T04:19:49;8.45;;;7.07;;
52248;SDS011;38541;48.130;8.378;2023-03-05T04:22:15;7.82;;;5.20;;
52248;SDS011;38541;48.130;8.378;2023-03-05T04:24:43;6.85;;;5.70;;
52248;SDS011;38541;48.130;8.378;2023-03-05T04:27:10;6.82;;;6.13;;
52248;SDS011;38541;48.130;8.378;2023-03-05T04:29:38;7.88;;;6.13;;
52248;SDS011;38541;48.130;8.378;2023-03-05T04:32:04;8.80;;;6.78;;
52248;SDS011;38541;48.130;8.378;2023-03-05T04:34:31;8.68;;;6.10;;
52248;SDS011;38541;48.130;8.378;2023-03-05T04:36:58;8.18;;;6.75;;
52248;SDS011;38541;48.130;8.378;2023-03-05T04:39:25;9.48;;;6.57;;
52248;SDS011;38541;48.130;8.378;2023-03-05T04:41:51;7.80;;;5.72;;
52248;SDS011;38541;48.130;8.378;2023-03-05T04:44:17;7.15;;;5.50;;
52248;SDS011;38541;48.130;8.378;2023-03-05T04:46:44;8.95;;;6.15;;
52248;SDS011;38541;48.130;8.378;2023-03-05T04:49:11;6.70;;;5.03;;
52248;SDS011;38541;48.130;8.378;2023-03-05T04:51:37;7.82;;;5.70;;
52248;SDS011;38541;48.130;8.378;2023-03-05T04:54:04;9.43;;;5.70;;
52248;SDS011;38541;48.130;8.378;2023-03-05T04:56:30;6.40;;;5.20;;
52248;SDS011;38541;48.130;8.378;2023-03-05T04:58:57;7.82;;;5.63;;
52248;SDS011;38541;48.130;8.378;2023-03-05T05:01:23;6.63;;;5.20;;
52248;SDS011;38541;48.130;8.378;2023-03-05T05:03:50;6.93;;;5.68;;
52248;SDS011;38541;48.130;8.378;2023-03-05T05:06:17;5.72;;;4.93;;
52248;SDS011;38541;48.130;8.378;2023-03-05T05:08:43;8.65;;;5.50;;
52248;SDS011;38541;48.130;8.378;2023-03-05T05:11:11;7.28;;;5.22;;
52248;SDS011;38541;48.130;8.378;2023-03-05T05:13:39;8.85;;;6.88;;
52248;SDS011;38541;48.130;8.378;2023-03-05T05:16:06;7.00;;;5.90;;
52248;SDS011;38541;48.130;8.378;2023-03-05T05:18:33;8.32;;;6.63;;
52248;SDS011;38541;48.130;8.378;2023-03-05T05:21:00;7.47;;;5.78;;
52248;SDS011;38541;48.130;8.378;2023-03-05T05:23:27;5.63;;;4.75;;
52248;SDS011;38541;48.130;8.378;2023-03-05T05:25:57;8.48;;;6.40;;
52248;SDS011;38541;48.130;8.378;2023-03-05T05:28:25;6.13;;;5.00;;
52248;SDS011;38541;48.130;8.378;2023-03-05T05:30:53;7.70;;;6.28;;
52248;SDS011;38541;48.130;8.378;2023-03-05T05:33:20;8.45;;;6.20;;
52248;SDS011;38541;48.130;8.378;2023-03-05T05:35:46;9.43;;;7.13;;
52248;SDS011;38541;48.130;8.378;2023-03-05T05:38:13;19.67;;;17.67;;
52248;SDS011;38541;48.130;8.378;2023-03-05T05:40:40;12.40;;;9.05;;
52248;SDS011;38541;48.130;8.378;2023-03-05T05:43:06;6.97;;;5.75;;
52248;SDS011;38541;48.130;8.378;2023-03-05T05:45:33;7.78;;;6.15;;
52248;SDS011;38541;48.130;8.378;2023-03-05T05:48:02;7.47;;;5.53;;
52248;SDS011;38541;48.130;8.378;2023-03-05T05:50:28;7.90;;;5.55;;
52248;SDS011;38541;48.130;8.378;2023-03-05T05:52:55;7.28;;;5.45;;
52248;SDS011;38541;48.130;8.378;2023-03-05T05:55:21;8.98;;;5.85;;
52248;SDS011;38541;48.130;8.378;2023-03-05T05:57:48;6.63;;;5.72;;
52248;SDS011;38541;48.130;8.378;2023-03-05T06:00:14;8.88;;;6.43;;
52248;SDS011;38541;48.130;8.378;2023-03-05T06:02:41;7.30;;;6.10;;
52248;SDS011;38541;48.130;8.378;2023-03-05T06:05:10;7.82;;;5.85;;
52248;SDS011;38541;48.130;8.378;2023-03-05T06:07:37;7.88;;;6.38;;
52248;SDS011;38541;48.130;8.378;2023-03-05T06:10:04;7.10;;;6.22;;
52248;SDS011;38541;48.130;8.378;2023-03-05T06:12:31;9.13;;;6.70;;
52248;SDS011;38541;48.130;8.378;2023-03-05T06:14:57;9.10;;;6.15;;
52248;SDS011;38541;48.130;8.378;2023-03-05T06:17:24;6.57;;;5.47;;
52248;SDS011;38541;48.130;8.378;2023-03-05T06:19:56;8.25;;;5.97;;
52248;SDS011;38541;48.130;8.378;2023-03-05T06:22:23;7.18;;;6.00;;
52248;SDS011;38541;48.130;8.378;2023-03-05T06:24:49;7.65;;;5.45;;
52248;SDS011;38541;48.130;8.378;2023-03-05T06:27:16;6.32;;;5.38;;
52248;SDS011;38541;48.130;8.378;2023-03-05T06:29:42;6.55;;;5.85;;
52248;SDS011;38541;48.130;8.378;2023-03-05T06:32:09;8.43;;;5.78;;
52248;SDS011;38541;48.130;8.378;2023-03-05T06:34:36;9.30;;;5.93;;
52248;SDS011;38541;48.130;8.378;2023-03-05T06:37:02;8.40;;;6.07;;
52248;SDS011;38541;48.130;8.378;2023-03-05T06:39:29;17.83;;;11.73;;
52248;SDS011;38541;48.130;8.378;2023-03-05T06:41:56;13.25;;;9.50;;
52248;SDS011;38541;48.130;8.378;2023-03-05T06:44:23;19.88;;;12.15;;
52248;SDS011;38541;48.130;8.378;2023-03-05T06:46:50;30.00;;;23.38;;
52248;SDS011;38541;48.130;8.378;2023-03-05T06:49:17;15.32;;;11.90;;
52248;SDS011;38541;48.130;8.378;2023-03-05T06:51:43;29.48;;;21.08;;
52248;SDS011;38541;48.130;8.378;2023-03-05T06:54:11;10.55;;;7.85;;
52248;SDS011;38541;48.130;8.378;2023-03-05T06:56:40;8.93;;;6.75;;
52248;SDS011;38541;48.130;8.378;2023-03-05T06:59:09;8.35;;;6.03;;
52248;SDS011;38541;48.130;8.378;2023-03-05T07:01:37;7.35;;;6.00;;
52248;SDS011;38541;48.130;8.378;2023-03-05T07:04:03;9.43;;;6.60;;
52248;SDS011;38541;48.130;8.378;2023-03-05T07:06:32;7.05;;;5.97;;
52248;SDS011;38541;48.130;8.378;2023-03-05T07:09:00;9.50;;;8.13;;
52248;SDS011;38541;48.130;8.378;2023-03-05T07:11:27;10.43;;;8.15;;
52248;SDS011;38541;48.130;8.378;2023-03-05T07:13:54;11.57;;;6.97;;
52248;SDS011;38541;48.130;8.378;2023-03-05T07:16:24;15.02;;;9.57;;
52248;SDS011;38541;48.130;8.378;2023-03-05T07:18:52;11.32;;;7.75;;
52248;SDS011;38541;48.130;8.378;2023-03-05T07:21:20;11.00;;;6.55;;
52248;SDS011;38541;48.130;8.378;2023-03-05T07:23:48;9.70;;;6.32;;
52248;SDS011;38541;48.130;8.378;2023-03-05T07:26:15;11.88;;;8.25;;
52248;SDS011;38541;48.130;8.378;2023-03-05T07:28:42;10.75;;;7.57;;
52248;SDS011;38541;48.130;8.378;2023-03-05T07:31:12;9.13;;;6.35;;
52248;SDS011;38541;48.130;8.378;2023-03-05T07:33:47;9.32;;;6.88;;
52248;SDS011;38541;48.130;8.378;2023-03-05T07:36:15;15.00;;;10.07;;
52248;SDS011;38541;48.130;8.378;2023-03-05T07:38:41;12.38;;;8.32;;
52248;SDS011;38541;48.130;8.378;2023-03-05T07:41:09;11.45;;;7.50;;
52248;SDS011;38541;48.130;8.378;2023-03-05T07:43:37;10.75;;;7.60;;
52248;SDS011;38541;48.130;8.378;2023-03-05T07:46:05;10.90;;;7.38;;
52248;SDS011;38541;48.130;8.378;2023-03-05T07:48:34;11.23;;;7.80;;
52248;SDS011;38541;48.130;8.378;2023-03-05T07:51:04;14.45;;;8.38;;
52248;SDS011;38541;48.130;8.378;2023-03-05T07:53:33;17.27;;;11.52;;
52248;SDS011;38541;48.130;8.378;2023-03-05T07:55:59;15.23;;;9.30;;
52248;SDS011;38541;48.130;8.378;2023-03-05T07:58:25;12.60;;;7.90;;
52248;SDS011;38541;48.130;8.378;2023-03-05T08:00:52;12.75;;;7.93;;
52248;SDS011;38541;48.130;8.378;2023-03-05T08:03:18;15.68;;;9.48;;
52248;SDS011;38541;48.130;8.378;2023-03-05T08:05:45;14.27;;;9.65;;
52248;SDS011;38541;48.130;8.378;2023-03-05T08:08:12;14.57;;;9.75;;
52248;SDS011;38541;48.130;8.378;2023-03-05T08:10:38;9.68;;;7.43;;
52248;SDS011;38541;48.130;8.378;2023-03-05T08:13:05;16.15;;;9.77;;
52248;SDS011;38541;48.130;8.378;2023-03-05T08:15:31;12.65;;;8.52;;
52248;SDS011;38541;48.130;8.378;2023-03-05T08:17:58;13.15;;;7.88;;
52248;SDS011;38541;48.130;8.378;2023-03-05T08:20:25;13.73;;;8.60;;
52248;SDS011;38541;48.130;8.378;2023-03-05T08:22:51;15.27;;;9.60;;
52248;SDS011;38541;48.130;8.378;2023-03-05T08:25:18;13.13;;;9.50;;
52248;SDS011;38541;48.130;8.378;2023-03-05T08:27:45;18.80;;;9.60;;
52248;SDS011;38541;48.130;8.378;2023-03-05T08:30:16;13.48;;;9.55;;
52248;SDS011;38541;48.130;8.378;2023-03-05T08:32:49;13.80;;;9.20;;
52248;SDS011;38541;48.130;8.378;2023-03-05T08:35:17;14.50;;;8.20;;
52248;SDS011;38541;48.130;8.378;2023-03-05T08:37:43;15.82;;;9.52;;
52248;SDS011;38541;48.130;8.378;2023-03-05T08:40:10;10.50;;;7.97;;
52248;SDS011;38541;48.130;8.378;2023-03-05T08:42:37;15.75;;;9.35;;
52248;SDS011;38541;48.130;8.378;2023-03-05T08:45:03;13.30;;;9.50;;
52248;SDS011;38541;48.130;8.378;2023-03-05T08:47:30;17.85;;;11.00;;
52248;SDS011;38541;48.130;8.378;2023-03-05T08:49:56;15.98;;;10.23;;
52248;SDS011;38541;48.130;8.378;2023-03-05T08:52:23;13.02;;;9.27;;
52248;SDS011;38541;48.130;8.378;2023-03-05T08:54:50;14.52;;;9.45;;
52248;SDS011;38541;48.130;8.378;2023-03-05T08:57:16;15.45;;;10.30;;
52248;SDS011;38541;48.130;8.378;2023-03-05T08:59:43;15.73;;;10.68;;
52248;SDS011;38541;48.130;8.378;2023-03-05T09:02:11;10.73;;;8.10;;
52248;SDS011;38541;48.130;8.378;2023-03-05T09:04:38;11.57;;;9.30;;
52248;SDS011;38541;48.130;8.378;2023-03-05T09:07:05;13.90;;;8.68;;
52248;SDS011;38541;48.130;8.378;2023-03-05T09:09:32;12.88;;;8.52;;
52248;SDS011;38541;48.130;8.378;2023-03-05T09:11:59;14.73;;;9.10;;
52248;SDS011;38541;48.130;8.378;2023-03-05T09:14:26;15.05;;;9.90;;
52248;SDS011;38541;48.130;8.378;2023-03-05T09:16:54;14.80;;;8.65;;
52248;SDS011;38541;48.130;8.378;2023-03-05T09:19:21;14.90;;;8.77;;
52248;SDS011;38541;48.130;8.378;2023-03-05T09:21:48;14.05;;;9.05;;
52248;SDS011;38541;48.130;8.378;2023-03-05T09:24:15;13.27;;;8.10;;
52248;SDS011;38541;48.130;8.378;2023-03-05T09:26:41;11.85;;;8.10;;
52248;SDS011;38541;48.130;8.378;2023-03-05T09:29:08;10.63;;;7.75;;
52248;SDS011;38541;48.130;8.378;2023-03-05T09:31:35;11.40;;;8.18;;
52248;SDS011;38541;48.130;8.378;2023-03-05T09:34:02;14.93;;;9.63;;
52248;SDS011;38541;48.130;8.378;2023-03-05T09:36:30;11.55;;;8.07;;
52248;SDS011;38541;48.130;8.378;2023-03-05T09:38:57;13.38;;;9.23;;
52248;SDS011;38541;48.130;8.378;2023-03-05T09:44:25;9.25;;;7.07;;
52248;SDS011;38541;48.130;8.378;2023-03-05T09:52:52;9.98;;;6.90;;
52248;SDS011;38541;48.130;8.378;2023-03-05T09:55:36;11.00;;;7.65;;
52248;SDS011;38541;48.130;8.378;2023-03-05T09:58:15;10.10;;;7.47;;
52248;SDS011;38541;48.130;8.378;2023-03-05T10:00:49;8.18;;;6.22;;
52248;SDS011;38541;48.130;8.378;2023-03-05T10:03:24;10.50;;;7.45;;
52248;SDS011;38541;48.130;8.378;2023-03-05T10:08:37;9.55;;;7.30;;
52248;SDS011;38541;48.130;8.378;2023-03-05T10:11:25;12.18;;;8.13;;
52248;SDS011;38541;48.130;8.378;2023-03-05T10:13:54;8.38;;;6.05;;
52248;SDS011;38541;48.130;8.378;2023-03-05T10:16:35;9.18;;;5.80;;
52248;SDS011;38541;48.130;8.378;2023-03-05T10:27:47;7.60;;;4.93;;
52248;SDS011;38541;48.130;8.378;2023-03-05T10:30:25;9.35;;;6.35;;
52248;SDS011;38541;48.130;8.378;2023-03-05T10:35:59;5.88;;;4.50;;
52248;SDS011;38541;48.130;8.378;2023-03-05T10:39:03;7.55;;;4.88;;
52248;SDS011;38541;48.130;8.378;2023-03-05T10:44:32;6.93;;;4.75;;
52248;SDS011;38541;48.130;8.378;2023-03-05T10:47:06;6.20;;;4.35;;
52248;SDS011;38541;48.130;8.378;2023-03-05T10:49:45;6.82;;;4.85;;
52248;SDS011;38541;48.130;8.378;2023-03-05T10:52:16;7.25;;;5.63;;
52248;SDS011;38541;48.130;8.378;2023-03-05T10:55:14;5.63;;;4.18;;
52248;SDS011;38541;48.130;8.378;2023-03-05T10:57:42;6.68;;;5.38;;
52248;SDS011;38541;48.130;8.378;2023-03-05T11:08:27;5.88;;;4.72;;
52248;SDS011;38541;48.130;8.378;2023-03-05T11:13:43;5.80;;;4.25;;
52248;SDS011;38541;48.130;8.378;2023-03-05T11:16:19;4.90;;;3.38;;
52248;SDS011;38541;48.130;8.378;2023-03-05T11:21:40;4.40;;;3.55;;
52248;SDS011;38541;48.130;8.378;2023-03-05T11:24:12;6.38;;;4.60;;
52248;SDS011;38541;48.130;8.378;2023-03-05T11:26:53;4.68;;;3.92;;
52248;SDS011;38541;48.130;8.378;2023-03-05T11:29:23;4.82;;;3.55;;
52248;SDS011;38541;48.130;8.378;2023-03-05T11:31:52;6.15;;;4.85;;
52248;SDS011;38541;48.130;8.378;2023-03-05T11:39:22;4.47;;;4.05;;
52248;SDS011;38541;48.130;8.378;2023-03-05T11:42:00;5.70;;;4.15;;
52248;SDS011;38541;48.130;8.378;2023-03-05T11:52:43;5.05;;;4.30;;
52248;SDS011;38541;48.130;8.378;2023-03-05T11:55:17;5.93;;;4.55;;
52248;SDS011;38541;48.130;8.378;2023-03-05T12:00:25;5.72;;;4.07;;
52248;SDS011;38541;48.130;8.378;2023-03-05T12:02:54;5.18;;;4.05;;
52248;SDS011;38541;48.130;8.378;2023-03-05T12:05:23;5.28;;;4.15;;
52248;SDS011;38541;48.130;8.378;2023-03-05T12:07:52;5.45;;;3.78;;
52248;SDS011;38541;48.130;8.378;2023-03-05T12:10:21;4.53;;;3.10;;
52248;SDS011;38541;48.130;8.378;2023-03-05T12:15:46;5.28;;;4.32;;
52248;SDS011;38541;48.130;8.378;2023-03-05T12:18:24;7.13;;;6.30;;
52248;SDS011;38541;48.130;8.378;2023-03-05T12:21:01;6.65;;;4.40;;
52248;SDS011;38541;48.130;8.378;2023-03-05T12:23:48;6.85;;;5.43;;
52248;SDS011;38541;48.130;8.378;2023-03-05T12:26:18;5.97;;;5.15;;
52248;SDS011;38541;48.130;8.378;2023-03-05T12:32:05;5.38;;;4.18;;
52248;SDS011;38541;48.130;8.378;2023-03-05T12:47:43;7.95;;;4.78;;
52248;SDS011;38541;48.130;8.378;2023-03-05T13:00:47;4.72;;;4.00;;
52248;SDS011;38541;48.130;8.378;2023-03-05T13:03:22;9.25;;;5.80;;
52248;SDS011;38541;48.130;8.378;2023-03-05T13:05:56;5.55;;;4.22;;
52248;SDS011;38541;48.130;8.378;2023-03-05T13:08:29;6.00;;;4.75;;
52248;SDS011;38541;48.130;8.378;2023-03-05T13:11:17;6.55;;;5.03;;
52248;SDS011;38541;48.130;8.378;2023-03-05T13:13:46;13.00;;;5.50;;
52248;SDS011;38541;48.130;8.378;2023-03-05T13:18:46;6.65;;;4.97;;
52248;SDS011;38541;48.130;8.378;2023-03-05T13:21:17;6.25;;;5.40;;
52248;SDS011;38541;48.130;8.378;2023-03-05T13:23:55;6.78;;;5.18;;
52248;SDS011;38541;48.130;8.378;2023-03-05T13:26:27;6.00;;;4.70;;
52248;SDS011;38541;48.130;8.378;2023-03-05T13:39:30;6.53;;;5.28;;
52248;SDS011;38541;48.130;8.378;2023-03-05T13:42:00;6.22;;;4.80;;
52248;SDS011;38541;48.130;8.378;2023-03-05T13:44:29;11.23;;;5.13;;
52248;SDS011;38541;48.130;8.378;2023-03-05T13:47:07;6.60;;;5.43;;
52248;SDS011;38541;48.130;8.378;2023-03-05T13:49:42;11.45;;;8.32;;
52248;SDS011;38541;48.130;8.378;2023-03-05T13:52:09;6.53;;;4.75;;
52248;SDS011;38541;48.130;8.378;2023-03-05T13:54:36;6.00;;;4.82;;
52248;SDS011;38541;48.130;8.378;2023-03-05T13:57:05;7.28;;;6.15;;
52248;SDS011;38541;48.130;8.378;2023-03-05T13:59:34;6.68;;;4.93;;
52248;SDS011;38541;48.130;8.378;2023-03-05T14:02:14;6.93;;;4.88;;
52248;SDS011;38541;48.130;8.378;2023-03-05T14:04:43;9.75;;;5.93;;
52248;SDS011;38541;48.130;8.378;2023-03-05T14:09:58;5.63;;;4.03;;
52248;SDS011;38541;48.130;8.378;2023-03-05T14:15:04;4.38;;;3.88;;
52248;SDS011;38541;48.130;8.378;2023-03-05T14:17:46;6.78;;;5.50;;
52248;SDS011;38541;48.130;8.378;2023-03-05T14:20:17;6.97;;;5.10;;
52248;SDS011;38541;48.130;8.378;2023-03-05T14:22:49;6.00;;;5.20;;
52248;SDS011;38541;48.130;8.378;2023-03-05T14:25:26;5.65;;;5.10;;
52248;SDS011;38541;48.130;8.378;2023-03-05T14:28:00;8.65;;;5.85;;
52248;SDS011;38541;48.130;8.378;2023-03-05T14:30:31;11.80;;;6.72;;
52248;SDS011;38541;48.130;8.378;2023-03-05T14:33:01;8.68;;;7.00;;
52248;SDS011;38541;48.130;8.378;2023-03-05T14:35:28;7.38;;;5.72;;
52248;SDS011;38541;48.130;8.378;2023-03-05T14:37:56;9.45;;;5.47;;
52248;SDS011;38541;48.130;8.378;2023-03-05T14:40:31;8.75;;;5.20;;
52248;SDS011;38541;48.130;8.378;2023-03-05T14:43:04;8.77;;;6.90;;
52248;SDS011;38541;48.130;8.378;2023-03-05T14:45:32;7.60;;;5.47;;
52248;SDS011;38541;48.130;8.378;2023-03-05T14:48:02;7.35;;;4.97;;
52248;SDS011;38541;48.130;8.378;2023-03-05T14:50:34;5.82;;;4.50;;
52248;SDS011;38541;48.130;8.378;2023-03-05T14:53:05;6.78;;;5.13;;
52248;SDS011;38541;48.130;8.378;2023-03-05T14:55:34;6.53;;;4.53;;
52248;SDS011;38541;48.130;8.378;2023-03-05T14:58:06;6.97;;;5.25;;
52248;SDS011;38541;48.130;8.378;2023-03-05T15:00:37;6.85;;;5.28;;
52248;SDS011;38541;48.130;8.378;2023-03-05T15:03:03;8.35;;;6.00;;
52248;SDS011;38541;48.130;8.378;2023-03-05T15:05:30;8.75;;;5.68;;
52248;SDS011;38541;48.130;8.378;2023-03-05T15:07:57;8.38;;;6.15;;
52248;SDS011;38541;48.130;8.378;2023-03-05T15:10:24;6.50;;;5.13;;
52248;SDS011;38541;48.130;8.378;2023-03-05T15:12:51;5.90;;;4.90;;
52248;SDS011;38541;48.130;8.378;2023-03-05T15:15:19;6.13;;;4.65;;
52248;SDS011;38541;48.130;8.378;2023-03-05T15:17:46;6.68;;;4.97;;
52248;SDS011;38541;48.130;8.378;2023-03-05T15:20:18;7.43;;;5.80;;
52248;SDS011;38541;48.130;8.378;2023-03-05T15:22:46;7.15;;;5.47;;
52248;SDS011;38541;48.130;8.378;2023-03-05T15:25:13;7.03;;;5.88;;
52248;SDS011;38541;48.130;8.378;2023-03-05T15:27:39;7.45;;;5.00;;
52248;SDS011;38541;48.130;8.378;2023-03-05T15:30:07;10.30;;;6.72;;
52248;SDS011;38541;48.130;8.378;2023-03-05T15:32:34;7.88;;;5.93;;
52248;SDS011;38541;48.130;8.378;2023-03-05T15:35:01;8.50;;;5.50;;
52248;SDS011;38541;48.130;8.378;2023-03-05T15:37:27;8.85;;;6.43;;
52248;SDS011;38541;48.130;8.378;2023-03-05T15:39:54;7.63;;;5.78;;
52248;SDS011;38541;48.130;8.378;2023-03-05T15:42:20;9.50;;;6.72;;
52248;SDS011;38541;48.130;8.378;2023-03-05T15:44:46;10.30;;;6.50;;
52248;SDS011;38541;48.130;8.378;2023-03-05T15:47:13;10.60;;;7.78;;
52248;SDS011;38541;48.130;8.378;2023-03-05T15:49:39;8.00;;;5.85;;
52248;SDS011;38541;48.130;8.378;2023-03-05T15:52:06;12.43;;;8.32;;
52248;SDS011;38541;48.130;8.378;2023-03-05T15:54:33;10.70;;;7.72;;
52248;SDS011;38541;48.130;8.378;2023-03-05T15:57:00;11.68;;;7.15;;
52248;SDS011;38541;48.130;8.378;2023-03-05T15:59:27;12.82;;;8.25;;
52248;SDS011;38541;48.130;8.378;2023-03-05T16:01:53;11.57;;;7.47;;
52248;SDS011;38541;48.130;8.378;2023-03-05T16:04:20;7.90;;;5.65;;
52248;SDS011;38541;48.130;8.378;2023-03-05T16:06:46;9.57;;;7.88;;
52248;SDS011;38541;48.130;8.378;2023-03-05T16:09:14;11.20;;;7.28;;
52248;SDS011;38541;48.130;8.378;2023-03-05T16:11:42;11.23;;;6.55;;
52248;SDS011;38541;48.130;8.378;2023-03-05T16:14:13;12.95;;;6.47;;
52248;SDS011;38541;48.130;8.378;2023-03-05T16:16:42;9.85;;;6.70;;
52248;SDS011;38541;48.130;8.378;2023-03-05T16:19:10;11.63;;;6.97;;
52248;SDS011;38541;48.130;8.378;2023-03-05T16:21:41;10.93;;;7.10;;
52248;SDS011;38541;48.130;8.378;2023-03-05T16:24:07;10.07;;;8.27;;
52248;SDS011;38541;48.130;8.378;2023-03-05T16:26:37;10.80;;;6.35;;
52248;SDS011;38541;48.130;8.378;2023-03-05T16:29:05;9.05;;;6.03;;
52248;SDS011;38541;48.130;8.378;2023-03-05T16:31:32;10.73;;;6.53;;